sensor_id;sensor_type;location;lat;lon;timestamp;P1;durP1;ratioP1;P2;durP2;ratioP2
60908;SDS011;46780;48.128;-1.704;2022-12-11T00:01:28;64.97;;;34.20;;
60908;SDS011;46780;48.128;-1.704;2022-12-11T00:03:58;63.28;;;33.97;;
60908;SDS011;46780;48.128;-1.704;2022-12-11T00:06:24;64.60;;;33.92;;
60908;SDS011;46780;48.128;-1.704;2022-12-11T00:08:51;64.22;;;33.65;;
60908;SDS011;46780;48.128;-1.704;2022-12-11T00:11:19;62.33;;;32.88;;
60908;SDS011;46780;48.128;-1.704;2022-12-11T00:13:48;63.42;;;32.80;;
60908;SDS011;46780;48.128;-1.704;2022-12-11T00:16:14;65.43;;;33.08;;
60908;SDS011;46780;48.128;-1.704;2022-12-11T00:18:41;58.38;;;31.90;;
60908;SDS011;46780;48.128;-1.704;2022-12-11T00:21:10;57.53;;;31.10;;
60908;SDS011;46780;48.128;-1.704;2022-12-11T00:23:38;64.47;;;32.33;;
60908;SDS011;46780;48.128;-1.704;2022-12-11T00:26:05;59.35;;;32.20;;
60908;SDS011;46780;48.128;-1.704;2022-12-11T00:28:33;57.97;;;32.80;;
60908;SDS011;46780;48.128;-1.704;2022-12-11T00:31:03;60.13;;;31.95;;
60908;SDS011;46780;48.128;-1.704;2022-12-11T00:33:30;63.03;;;32.00;;
60908;SDS011;46780;48.128;-1.704;2022-12-11T00:35:57;60.15;;;31.98;;
60908;SDS011;46780;48.128;-1.704;2022-12-11T00:38:23;62.67;;;31.70;;
60908;SDS011;46780;48.128;-1.704;2022-12-11T00:40:50;62.17;;;33.00;;
60908;SDS011;46780;48.128;-1.704;2022-12-11T00:43:16;61.88;;;31.77;;
60908;SDS011;46780;48.128;-1.704;2022-12-11T00:45:43;60.58;;;31.52;;
60908;SDS011;46780;48.128;-1.704;2022-12-11T00:48:13;57.85;;;31.35;;
60908;SDS011;46780;48.128;-1.704;2022-12-11T00:50:39;61.22;;;31.92;;
60908;SDS011;46780;48.128;-1.704;2022-12-11T00:53:06;62.50;;;32.70;;
60908;SDS011;46780;48.128;-1.704;2022-12-11T00:55:35;64.30;;;32.65;;
60908;SDS011;46780;48.128;-1.704;2022-12-11T00:58:02;68.00;;;33.70;;
60908;SDS011;46780;48.128;-1.704;2022-12-11T01:00:29;60.17;;;32.83;;
60908;SDS011;46780;48.128;-1.704;2022-12-11T01:02:55;62.63;;;33.40;;
60908;SDS011;46780;48.128;-1.704;2022-12-11T01:05:23;69.95;;;33.70;;
60908;SDS011;46780;48.128;-1.704;2022-12-11T01:07:50;64.82;;;33.05;;
60908;SDS011;46780;48.128;-1.704;2022-12-11T01:10:16;66.90;;;33.72;;
60908;SDS011;46780;48.128;-1.704;2022-12-11T01:12:43;67.18;;;33.33;;
60908;SDS011;46780;48.128;-1.704;2022-12-11T01:15:10;67.25;;;34.25;;
60908;SDS011;46780;48.128;-1.704;2022-12-11T01:17:36;66.07;;;33.83;;
60908;SDS011;46780;48.128;-1.704;2022-12-11T01:20:03;69.18;;;34.60;;
60908;SDS011;46780;48.128;-1.704;2022-12-11T01:22:32;72.43;;;34.30;;
60908;SDS011;46780;48.128;-1.704;2022-12-11T01:24:58;73.60;;;34.72;;
60908;SDS011;46780;48.128;-1.704;2022-12-11T01:27:25;67.63;;;34.40;;
60908;SDS011;46780;48.128;-1.704;2022-12-11T01:29:51;70.70;;;36.08;;
60908;SDS011;46780;48.128;-1.704;2022-12-11T01:32:18;69.40;;;35.78;;
60908;SDS011;46780;48.128;-1.704;2022-12-11T01:34:44;74.68;;;35.97;;
60908;SDS011;46780;48.128;-1.704;2022-12-11T01:37:11;67.25;;;35.55;;
60908;SDS011;46780;48.128;-1.704;2022-12-11T01:39:39;72.05;;;35.75;;
60908;SDS011;46780;48.128;-1.704;2022-12-11T01:42:05;76.07;;;38.42;;
60908;SDS011;46780;48.128;-1.704;2022-12-11T01:47:42;79.38;;;36.78;;
60908;SDS011;46780;48.128;-1.704;2022-12-11T01:50:09;81.25;;;38.35;;
60908;SDS011;46780;48.128;-1.704;2022-12-11T01:52:36;75.15;;;38.13;;
60908;SDS011;46780;48.128;-1.704;2022-12-11T01:55:04;75.57;;;37.58;;
60908;SDS011;46780;48.128;-1.704;2022-12-11T01:57:31;85.80;;;39.42;;
60908;SDS011;46780;48.128;-1.704;2022-12-11T01:59:58;77.18;;;38.42;;
60908;SDS011;46780;48.128;-1.704;2022-12-11T02:02:25;81.75;;;39.40;;
60908;SDS011;46780;48.128;-1.704;2022-12-11T02:04:55;82.85;;;40.25;;
60908;SDS011;46780;48.128;-1.704;2022-12-11T02:07:21;91.47;;;41.35;;
60908;SDS011;46780;48.128;-1.704;2022-12-11T02:09:48;85.10;;;39.63;;
60908;SDS011;46780;48.128;-1.704;2022-12-11T02:12:18;86.25;;;40.72;;
60908;SDS011;46780;48.128;-1.704;2022-12-11T02:14:52;88.95;;;41.55;;
60908;SDS011;46780;48.128;-1.704;2022-12-11T02:17:27;90.45;;;42.20;;
60908;SDS011;46780;48.128;-1.704;2022-12-11T02:20:02;89.38;;;40.47;;
60908;SDS011;46780;48.128;-1.704;2022-12-11T02:22:38;97.68;;;42.42;;
60908;SDS011;46780;48.128;-1.704;2022-12-11T02:25:35;103.80;;;42.25;;
60908;SDS011;46780;48.128;-1.704;2022-12-11T02:28:13;97.95;;;44.00;;
60908;SDS011;46780;48.128;-1.704;2022-12-11T02:30:43;95.93;;;42.97;;
60908;SDS011;46780;48.128;-1.704;2022-12-11T02:35:41;102.35;;;44.63;;
60908;SDS011;46780;48.128;-1.704;2022-12-11T02:38:11;96.95;;;43.63;;
60908;SDS011;46780;48.128;-1.704;2022-12-11T02:40:42;102.10;;;44.20;;
60908;SDS011;46780;48.128;-1.704;2022-12-11T02:43:13;96.38;;;44.17;;
60908;SDS011;46780;48.128;-1.704;2022-12-11T02:45:42;101.95;;;43.22;;
60908;SDS011;46780;48.128;-1.704;2022-12-11T02:48:10;92.28;;;43.47;;
60908;SDS011;46780;48.128;-1.704;2022-12-11T02:50:41;106.05;;;45.78;;
60908;SDS011;46780;48.128;-1.704;2022-12-11T02:53:10;109.32;;;45.92;;
60908;SDS011;46780;48.128;-1.704;2022-12-11T02:55:40;105.10;;;43.88;;
60908;SDS011;46780;48.128;-1.704;2022-12-11T02:58:11;104.57;;;43.97;;
60908;SDS011;46780;48.128;-1.704;2022-12-11T03:00:42;106.68;;;45.60;;
60908;SDS011;46780;48.128;-1.704;2022-12-11T03:03:09;107.05;;;44.70;;
60908;SDS011;46780;48.128;-1.704;2022-12-11T03:05:36;99.43;;;44.95;;
60908;SDS011;46780;48.128;-1.704;2022-12-11T03:08:03;102.35;;;43.50;;
60908;SDS011;46780;48.128;-1.704;2022-12-11T03:10:30;106.35;;;43.60;;
60908;SDS011;46780;48.128;-1.704;2022-12-11T03:12:57;100.22;;;43.72;;
60908;SDS011;46780;48.128;-1.704;2022-12-11T03:15:28;102.68;;;44.55;;
60908;SDS011;46780;48.128;-1.704;2022-12-11T03:17:59;109.15;;;43.00;;
60908;SDS011;46780;48.128;-1.704;2022-12-11T03:20:34;100.85;;;43.92;;
60908;SDS011;46780;48.128;-1.704;2022-12-11T03:23:08;103.90;;;42.70;;
60908;SDS011;46780;48.128;-1.704;2022-12-11T03:25:43;99.63;;;43.38;;
60908;SDS011;46780;48.128;-1.704;2022-12-11T03:28:17;95.72;;;41.75;;
60908;SDS011;46780;48.128;-1.704;2022-12-11T03:30:48;104.00;;;43.03;;
60908;SDS011;46780;48.128;-1.704;2022-12-11T03:33:18;93.00;;;42.20;;
60908;SDS011;46780;48.128;-1.704;2022-12-11T03:35:50;95.07;;;41.25;;
60908;SDS011;46780;48.128;-1.704;2022-12-11T03:38:20;91.13;;;41.50;;
60908;SDS011;46780;48.128;-1.704;2022-12-11T03:40:50;100.10;;;41.92;;
60908;SDS011;46780;48.128;-1.704;2022-12-11T03:43:20;99.35;;;39.72;;
60908;SDS011;46780;48.128;-1.704;2022-12-11T03:45:48;105.63;;;41.58;;
60908;SDS011;46780;48.128;-1.704;2022-12-11T03:48:18;93.45;;;40.10;;
60908;SDS011;46780;48.128;-1.704;2022-12-11T03:50:47;97.50;;;41.03;;
60908;SDS011;46780;48.128;-1.704;2022-12-11T03:53:15;92.78;;;39.70;;
60908;SDS011;46780;48.128;-1.704;2022-12-11T03:55:43;97.13;;;40.15;;
60908;SDS011;46780;48.128;-1.704;2022-12-11T03:58:11;96.15;;;39.15;;
60908;SDS011;46780;48.128;-1.704;2022-12-11T04:00:37;87.35;;;36.97;;
60908;SDS011;46780;48.128;-1.704;2022-12-11T04:03:06;91.07;;;37.92;;
60908;SDS011;46780;48.128;-1.704;2022-12-11T04:05:34;99.72;;;40.05;;
60908;SDS011;46780;48.128;-1.704;2022-12-11T04:08:03;88.43;;;37.30;;
60908;SDS011;46780;48.128;-1.704;2022-12-11T04:10:32;96.93;;;38.70;;
60908;SDS011;46780;48.128;-1.704;2022-12-11T04:13:01;91.93;;;37.83;;
60908;SDS011;46780;48.128;-1.704;2022-12-11T04:15:29;99.13;;;37.60;;
60908;SDS011;46780;48.128;-1.704;2022-12-11T04:17:58;94.72;;;37.60;;
60908;SDS011;46780;48.128;-1.704;2022-12-11T04:20:27;97.28;;;38.15;;
60908;SDS011;46780;48.128;-1.704;2022-12-11T04:22:55;97.72;;;37.28;;
60908;SDS011;46780;48.128;-1.704;2022-12-11T04:25:22;92.20;;;36.60;;
60908;SDS011;46780;48.128;-1.704;2022-12-11T04:27:50;91.95;;;37.13;;
60908;SDS011;46780;48.128;-1.704;2022-12-11T04:30:18;86.10;;;35.60;;
60908;SDS011;46780;48.128;-1.704;2022-12-11T04:32:48;86.22;;;35.13;;
60908;SDS011;46780;48.128;-1.704;2022-12-11T04:35:15;87.20;;;35.10;;
60908;SDS011;46780;48.128;-1.704;2022-12-11T04:37:45;91.20;;;35.47;;
60908;SDS011;46780;48.128;-1.704;2022-12-11T04:40:14;93.65;;;35.03;;
60908;SDS011;46780;48.128;-1.704;2022-12-11T04:42:42;95.07;;;35.08;;
60908;SDS011;46780;48.128;-1.704;2022-12-11T04:45:09;94.38;;;34.35;;
60908;SDS011;46780;48.128;-1.704;2022-12-11T04:47:37;83.20;;;33.15;;
60908;SDS011;46780;48.128;-1.704;2022-12-11T04:50:06;85.85;;;34.13;;
60908;SDS011;46780;48.128;-1.704;2022-12-11T04:52:34;85.32;;;33.25;;
60908;SDS011;46780;48.128;-1.704;2022-12-11T04:55:03;86.80;;;33.78;;
60908;SDS011;46780;48.128;-1.704;2022-12-11T04:57:30;86.93;;;33.85;;
60908;SDS011;46780;48.128;-1.704;2022-12-11T04:59:57;90.85;;;33.67;;
60908;SDS011;46780;48.128;-1.704;2022-12-11T05:02:23;85.90;;;32.33;;
60908;SDS011;46780;48.128;-1.704;2022-12-11T05:04:50;88.28;;;33.72;;
60908;SDS011;46780;48.128;-1.704;2022-12-11T05:07:17;91.75;;;33.25;;
60908;SDS011;46780;48.128;-1.704;2022-12-11T05:09:43;91.38;;;33.00;;
60908;SDS011;46780;48.128;-1.704;2022-12-11T05:12:11;78.20;;;30.75;;
60908;SDS011;46780;48.128;-1.704;2022-12-11T05:14:38;85.22;;;30.77;;
60908;SDS011;46780;48.128;-1.704;2022-12-11T05:17:05;89.47;;;31.23;;
60908;SDS011;46780;48.128;-1.704;2022-12-11T05:19:32;82.05;;;31.38;;
60908;SDS011;46780;48.128;-1.704;2022-12-11T05:21:58;90.60;;;33.22;;
60908;SDS011;46780;48.128;-1.704;2022-12-11T05:24:25;87.13;;;32.33;;
60908;SDS011;46780;48.128;-1.704;2022-12-11T05:26:51;90.63;;;32.67;;
60908;SDS011;46780;48.128;-1.704;2022-12-11T05:29:19;88.85;;;31.02;;
60908;SDS011;46780;48.128;-1.704;2022-12-11T05:31:46;84.13;;;31.13;;
60908;SDS011;46780;48.128;-1.704;2022-12-11T05:34:12;81.28;;;30.60;;
60908;SDS011;46780;48.128;-1.704;2022-12-11T05:36:39;83.13;;;29.40;;
60908;SDS011;46780;48.128;-1.704;2022-12-11T05:39:05;79.50;;;29.60;;
60908;SDS011;46780;48.128;-1.704;2022-12-11T05:41:32;85.18;;;30.40;;
60908;SDS011;46780;48.128;-1.704;2022-12-11T05:43:58;84.55;;;29.63;;
60908;SDS011;46780;48.128;-1.704;2022-12-11T05:46:27;83.88;;;30.52;;
60908;SDS011;46780;48.128;-1.704;2022-12-11T05:48:55;90.18;;;32.00;;
60908;SDS011;46780;48.128;-1.704;2022-12-11T05:51:23;90.57;;;30.08;;
60908;SDS011;46780;48.128;-1.704;2022-12-11T05:53:50;90.40;;;30.70;;
60908;SDS011;46780;48.128;-1.704;2022-12-11T05:56:18;83.43;;;30.60;;
60908;SDS011;46780;48.128;-1.704;2022-12-11T05:58:46;83.90;;;30.05;;
60908;SDS011;46780;48.128;-1.704;2022-12-11T06:01:13;89.85;;;30.65;;
60908;SDS011;46780;48.128;-1.704;2022-12-11T06:03:43;88.50;;;30.33;;
60908;SDS011;46780;48.128;-1.704;2022-12-11T06:06:09;80.05;;;29.83;;
60908;SDS011;46780;48.128;-1.704;2022-12-11T06:08:36;88.78;;;30.85;;
60908;SDS011;46780;48.128;-1.704;2022-12-11T06:11:03;82.05;;;31.13;;
60908;SDS011;46780;48.128;-1.704;2022-12-11T06:13:30;86.85;;;30.63;;
60908;SDS011;46780;48.128;-1.704;2022-12-11T06:15:58;89.07;;;30.70;;
60908;SDS011;46780;48.128;-1.704;2022-12-11T06:18:25;94.43;;;32.05;;
60908;SDS011;46780;48.128;-1.704;2022-12-11T06:20:53;88.00;;;30.58;;
60908;SDS011;46780;48.128;-1.704;2022-12-11T06:23:19;84.35;;;31.45;;
60908;SDS011;46780;48.128;-1.704;2022-12-11T06:25:46;86.10;;;31.15;;
60908;SDS011;46780;48.128;-1.704;2022-12-11T06:28:12;83.90;;;28.65;;
60908;SDS011;46780;48.128;-1.704;2022-12-11T06:30:39;96.60;;;31.50;;
60908;SDS011;46780;48.128;-1.704;2022-12-11T06:33:05;90.63;;;31.17;;
60908;SDS011;46780;48.128;-1.704;2022-12-11T06:35:32;86.88;;;30.92;;
60908;SDS011;46780;48.128;-1.704;2022-12-11T06:38:00;85.45;;;30.60;;
60908;SDS011;46780;48.128;-1.704;2022-12-11T06:40:27;93.22;;;30.88;;
60908;SDS011;46780;48.128;-1.704;2022-12-11T06:42:53;92.60;;;30.40;;
60908;SDS011;46780;48.128;-1.704;2022-12-11T06:45:20;94.35;;;31.58;;
60908;SDS011;46780;48.128;-1.704;2022-12-11T06:47:46;87.65;;;30.88;;
60908;SDS011;46780;48.128;-1.704;2022-12-11T06:50:12;89.38;;;29.52;;
60908;SDS011;46780;48.128;-1.704;2022-12-11T06:52:39;88.13;;;30.45;;
60908;SDS011;46780;48.128;-1.704;2022-12-11T06:55:07;81.10;;;29.77;;
60908;SDS011;46780;48.128;-1.704;2022-12-11T06:57:34;90.63;;;31.50;;
60908;SDS011;46780;48.128;-1.704;2022-12-11T07:00:00;82.20;;;29.65;;
60908;SDS011;46780;48.128;-1.704;2022-12-11T07:02:27;87.47;;;30.27;;
60908;SDS011;46780;48.128;-1.704;2022-12-11T07:04:53;87.53;;;30.60;;
60908;SDS011;46780;48.128;-1.704;2022-12-11T07:07:20;87.15;;;30.25;;
60908;SDS011;46780;48.128;-1.704;2022-12-11T07:09:46;95.20;;;31.63;;
60908;SDS011;46780;48.128;-1.704;2022-12-11T07:12:15;90.45;;;32.05;;
60908;SDS011;46780;48.128;-1.704;2022-12-11T07:14:41;95.65;;;31.92;;
60908;SDS011;46780;48.128;-1.704;2022-12-11T07:17:08;96.05;;;31.80;;
60908;SDS011;46780;48.128;-1.704;2022-12-11T07:19:34;89.95;;;32.20;;
60908;SDS011;46780;48.128;-1.704;2022-12-11T07:22:01;94.38;;;32.22;;
60908;SDS011;46780;48.128;-1.704;2022-12-11T07:24:27;97.40;;;32.75;;
60908;SDS011;46780;48.128;-1.704;2022-12-11T07:26:54;96.60;;;32.65;;
60908;SDS011;46780;48.128;-1.704;2022-12-11T07:29:22;95.07;;;32.72;;
60908;SDS011;46780;48.128;-1.704;2022-12-11T07:31:48;103.88;;;32.83;;
60908;SDS011;46780;48.128;-1.704;2022-12-11T07:34:14;104.93;;;32.50;;
60908;SDS011;46780;48.128;-1.704;2022-12-11T07:36:41;99.88;;;29.45;;
60908;SDS011;46780;48.128;-1.704;2022-12-11T07:39:09;102.32;;;31.65;;
60908;SDS011;46780;48.128;-1.704;2022-12-11T07:41:36;105.38;;;33.10;;
60908;SDS011;46780;48.128;-1.704;2022-12-11T07:44:03;100.57;;;32.08;;
60908;SDS011;46780;48.128;-1.704;2022-12-11T07:46:33;96.60;;;32.72;;
60908;SDS011;46780;48.128;-1.704;2022-12-11T07:48:59;103.85;;;31.52;;
60908;SDS011;46780;48.128;-1.704;2022-12-11T07:51:26;105.70;;;33.75;;
60908;SDS011;46780;48.128;-1.704;2022-12-11T07:53:56;104.68;;;32.85;;
60908;SDS011;46780;48.128;-1.704;2022-12-11T07:56:23;104.55;;;32.85;;
60908;SDS011;46780;48.128;-1.704;2022-12-11T07:58:51;104.65;;;32.67;;
60908;SDS011;46780;48.128;-1.704;2022-12-11T08:01:18;102.03;;;33.25;;
60908;SDS011;46780;48.128;-1.704;2022-12-11T08:03:48;109.10;;;33.85;;
60908;SDS011;46780;48.128;-1.704;2022-12-11T08:06:14;105.18;;;34.17;;
60908;SDS011;46780;48.128;-1.704;2022-12-11T08:08:42;111.30;;;34.40;;
60908;SDS011;46780;48.128;-1.704;2022-12-11T08:11:10;111.70;;;33.90;;
60908;SDS011;46780;48.128;-1.704;2022-12-11T08:13:37;112.93;;;34.58;;
60908;SDS011;46780;48.128;-1.704;2022-12-11T08:16:04;116.13;;;34.10;;
60908;SDS011;46780;48.128;-1.704;2022-12-11T08:18:32;118.85;;;34.03;;
60908;SDS011;46780;48.128;-1.704;2022-12-11T08:21:03;108.53;;;34.03;;
60908;SDS011;46780;48.128;-1.704;2022-12-11T08:23:30;110.35;;;33.00;;
60908;SDS011;46780;48.128;-1.704;2022-12-11T08:25:56;115.90;;;35.33;;
60908;SDS011;46780;48.128;-1.704;2022-12-11T08:28:23;115.85;;;35.40;;
60908;SDS011;46780;48.128;-1.704;2022-12-11T08:30:49;113.78;;;33.55;;
60908;SDS011;46780;48.128;-1.704;2022-12-11T08:33:16;109.57;;;35.78;;
60908;SDS011;46780;48.128;-1.704;2022-12-11T08:35:42;122.30;;;35.78;;
60908;SDS011;46780;48.128;-1.704;2022-12-11T08:38:10;118.90;;;36.25;;
60908;SDS011;46780;48.128;-1.704;2022-12-11T08:40:36;139.15;;;39.10;;
60908;SDS011;46780;48.128;-1.704;2022-12-11T08:43:03;113.82;;;35.92;;
60908;SDS011;46780;48.128;-1.704;2022-12-11T08:45:29;122.60;;;36.92;;
60908;SDS011;46780;48.128;-1.704;2022-12-11T08:47:56;119.63;;;36.25;;
60908;SDS011;46780;48.128;-1.704;2022-12-11T08:50:23;120.05;;;35.83;;
60908;SDS011;46780;48.128;-1.704;2022-12-11T08:52:49;114.05;;;34.60;;
60908;SDS011;46780;48.128;-1.704;2022-12-11T08:55:17;120.60;;;34.58;;
60908;SDS011;46780;48.128;-1.704;2022-12-11T08:57:44;124.55;;;36.38;;
60908;SDS011;46780;48.128;-1.704;2022-12-11T09:00:11;134.95;;;38.13;;
60908;SDS011;46780;48.128;-1.704;2022-12-11T09:02:38;122.18;;;35.30;;
60908;SDS011;46780;48.128;-1.704;2022-12-11T09:05:05;126.45;;;37.03;;
60908;SDS011;46780;48.128;-1.704;2022-12-11T09:07:32;131.23;;;37.20;;
60908;SDS011;46780;48.128;-1.704;2022-12-11T09:09:59;133.10;;;37.88;;
60908;SDS011;46780;48.128;-1.704;2022-12-11T09:12:27;124.90;;;37.70;;
60908;SDS011;46780;48.128;-1.704;2022-12-11T09:14:54;126.10;;;37.83;;
60908;SDS011;46780;48.128;-1.704;2022-12-11T09:17:20;121.75;;;37.63;;
60908;SDS011;46780;48.128;-1.704;2022-12-11T09:19:47;127.47;;;37.38;;
60908;SDS011;46780;48.128;-1.704;2022-12-11T09:22:13;134.27;;;37.53;;
60908;SDS011;46780;48.128;-1.704;2022-12-11T09:24:40;122.97;;;36.08;;
60908;SDS011;46780;48.128;-1.704;2022-12-11T09:27:07;124.75;;;38.10;;
60908;SDS011;46780;48.128;-1.704;2022-12-11T09:29:34;136.57;;;37.70;;
60908;SDS011;46780;48.128;-1.704;2022-12-11T09:32:01;132.40;;;38.30;;
60908;SDS011;46780;48.128;-1.704;2022-12-11T09:34:27;131.68;;;37.25;;
60908;SDS011;46780;48.128;-1.704;2022-12-11T09:36:54;134.82;;;39.17;;
60908;SDS011;46780;48.128;-1.704;2022-12-11T09:39:20;128.05;;;37.85;;
60908;SDS011;46780;48.128;-1.704;2022-12-11T09:41:48;134.02;;;38.85;;
60908;SDS011;46780;48.128;-1.704;2022-12-11T09:44:23;129.60;;;38.88;;
60908;SDS011;46780;48.128;-1.704;2022-12-11T09:46:58;128.77;;;36.00;;
60908;SDS011;46780;48.128;-1.704;2022-12-11T09:49:31;136.35;;;38.58;;
60908;SDS011;46780;48.128;-1.704;2022-12-11T09:52:05;134.73;;;38.25;;
60908;SDS011;46780;48.128;-1.704;2022-12-11T09:54:40;135.85;;;38.88;;
60908;SDS011;46780;48.128;-1.704;2022-12-11T09:57:15;120.93;;;35.58;;
60908;SDS011;46780;48.128;-1.704;2022-12-11T10:00:01;128.52;;;36.53;;
60908;SDS011;46780;48.128;-1.704;2022-12-11T10:02:44;134.52;;;37.78;;
60908;SDS011;46780;48.128;-1.704;2022-12-11T10:05:37;122.03;;;36.55;;
60908;SDS011;46780;48.128;-1.704;2022-12-11T10:08:13;129.55;;;38.13;;
60908;SDS011;46780;48.128;-1.704;2022-12-11T10:10:46;131.75;;;37.83;;
60908;SDS011;46780;48.128;-1.704;2022-12-11T10:13:22;124.55;;;37.70;;
60908;SDS011;46780;48.128;-1.704;2022-12-11T10:15:55;127.65;;;38.97;;
60908;SDS011;46780;48.128;-1.704;2022-12-11T10:18:27;129.55;;;38.90;;
60908;SDS011;46780;48.128;-1.704;2022-12-11T10:23:26;126.90;;;36.30;;
60908;SDS011;46780;48.128;-1.704;2022-12-11T10:25:57;113.93;;;35.80;;
60908;SDS011;46780;48.128;-1.704;2022-12-11T10:28:29;112.38;;;35.47;;
60908;SDS011;46780;48.128;-1.704;2022-12-11T10:30:57;127.13;;;36.60;;
60908;SDS011;46780;48.128;-1.704;2022-12-11T10:33:35;128.10;;;35.63;;
60908;SDS011;46780;48.128;-1.704;2022-12-11T10:36:09;113.25;;;36.17;;
60908;SDS011;46780;48.128;-1.704;2022-12-11T10:38:43;112.20;;;36.05;;
60908;SDS011;46780;48.128;-1.704;2022-12-11T10:41:12;119.18;;;36.13;;
60908;SDS011;46780;48.128;-1.704;2022-12-11T10:43:42;125.10;;;37.45;;
60908;SDS011;46780;48.128;-1.704;2022-12-11T10:46:13;122.63;;;37.13;;
60908;SDS011;46780;48.128;-1.704;2022-12-11T10:48:48;119.85;;;36.25;;
60908;SDS011;46780;48.128;-1.704;2022-12-11T10:51:15;123.68;;;37.28;;
60908;SDS011;46780;48.128;-1.704;2022-12-11T10:53:42;115.97;;;36.97;;
60908;SDS011;46780;48.128;-1.704;2022-12-11T10:56:14;104.80;;;34.90;;
60908;SDS011;46780;48.128;-1.704;2022-12-11T10:58:46;103.47;;;33.08;;
60908;SDS011;46780;48.128;-1.704;2022-12-11T11:01:15;102.10;;;32.63;;
60908;SDS011;46780;48.128;-1.704;2022-12-11T11:03:52;98.50;;;33.05;;
60908;SDS011;46780;48.128;-1.704;2022-12-11T11:06:23;100.88;;;33.13;;
60908;SDS011;46780;48.128;-1.704;2022-12-11T11:08:50;94.90;;;31.48;;
60908;SDS011;46780;48.128;-1.704;2022-12-11T11:11:23;98.45;;;32.25;;
60908;SDS011;46780;48.128;-1.704;2022-12-11T11:14:02;93.38;;;31.58;;
60908;SDS011;46780;48.128;-1.704;2022-12-11T11:16:37;93.15;;;31.58;;
60908;SDS011;46780;48.128;-1.704;2022-12-11T11:19:06;95.78;;;31.50;;
60908;SDS011;46780;48.128;-1.704;2022-12-11T11:21:45;105.13;;;35.30;;
60908;SDS011;46780;48.128;-1.704;2022-12-11T11:24:17;96.78;;;31.35;;
60908;SDS011;46780;48.128;-1.704;2022-12-11T11:26:53;91.55;;;32.30;;
60908;SDS011;46780;48.128;-1.704;2022-12-11T11:29:22;100.18;;;34.30;;
60908;SDS011;46780;48.128;-1.704;2022-12-11T11:31:53;102.75;;;32.25;;
60908;SDS011;46780;48.128;-1.704;2022-12-11T11:34:21;101.05;;;33.65;;
60908;SDS011;46780;48.128;-1.704;2022-12-11T11:36:54;99.40;;;32.22;;
60908;SDS011;46780;48.128;-1.704;2022-12-11T11:39:22;96.57;;;32.22;;
60908;SDS011;46780;48.128;-1.704;2022-12-11T11:41:55;97.68;;;32.47;;
60908;SDS011;46780;48.128;-1.704;2022-12-11T11:44:26;101.13;;;32.70;;
60908;SDS011;46780;48.128;-1.704;2022-12-11T11:46:58;97.07;;;31.90;;
60908;SDS011;46780;48.128;-1.704;2022-12-11T11:49:35;83.00;;;29.75;;
60908;SDS011;46780;48.128;-1.704;2022-12-11T11:52:12;92.80;;;30.23;;
60908;SDS011;46780;48.128;-1.704;2022-12-11T11:54:46;89.78;;;30.17;;
60908;SDS011;46780;48.128;-1.704;2022-12-11T11:57:16;86.82;;;31.23;;
60908;SDS011;46780;48.128;-1.704;2022-12-11T11:59:48;96.93;;;31.63;;
60908;SDS011;46780;48.128;-1.704;2022-12-11T12:02:19;93.25;;;30.83;;
60908;SDS011;46780;48.128;-1.704;2022-12-11T12:04:47;94.40;;;30.90;;
60908;SDS011;46780;48.128;-1.704;2022-12-11T12:07:19;97.65;;;31.42;;
60908;SDS011;46780;48.128;-1.704;2022-12-11T12:12:32;85.97;;;30.23;;
60908;SDS011;46780;48.128;-1.704;2022-12-11T12:15:11;92.95;;;32.53;;
60908;SDS011;46780;48.128;-1.704;2022-12-11T12:17:47;101.50;;;32.17;;
60908;SDS011;46780;48.128;-1.704;2022-12-11T12:20:21;87.57;;;30.55;;
60908;SDS011;46780;48.128;-1.704;2022-12-11T12:22:58;85.60;;;30.45;;
60908;SDS011;46780;48.128;-1.704;2022-12-11T12:25:33;89.97;;;30.60;;
60908;SDS011;46780;48.128;-1.704;2022-12-11T12:28:04;87.10;;;30.30;;
60908;SDS011;46780;48.128;-1.704;2022-12-11T12:30:46;81.75;;;30.27;;
60908;SDS011;46780;48.128;-1.704;2022-12-11T12:33:25;84.88;;;30.63;;
60908;SDS011;46780;48.128;-1.704;2022-12-11T12:36:04;86.78;;;30.35;;
60908;SDS011;46780;48.128;-1.704;2022-12-11T12:38:40;81.57;;;29.45;;
60908;SDS011;46780;48.128;-1.704;2022-12-11T12:41:17;79.32;;;28.00;;
60908;SDS011;46780;48.128;-1.704;2022-12-11T12:43:54;62.75;;;22.45;;
60908;SDS011;46780;48.128;-1.704;2022-12-11T12:46:32;69.15;;;25.40;;
60908;SDS011;46780;48.128;-1.704;2022-12-11T12:49:09;83.28;;;27.63;;
60908;SDS011;46780;48.128;-1.704;2022-12-11T12:51:41;77.40;;;27.48;;
60908;SDS011;46780;48.128;-1.704;2022-12-11T12:54:10;73.47;;;26.92;;
60908;SDS011;46780;48.128;-1.704;2022-12-11T12:56:38;73.80;;;26.63;;
60908;SDS011;46780;48.128;-1.704;2022-12-11T12:59:06;74.95;;;27.95;;
60908;SDS011;46780;48.128;-1.704;2022-12-11T13:01:45;68.45;;;26.95;;
60908;SDS011;46780;48.128;-1.704;2022-12-11T13:04:25;73.50;;;27.35;;
60908;SDS011;46780;48.128;-1.704;2022-12-11T13:06:57;70.47;;;26.48;;
60908;SDS011;46780;48.128;-1.704;2022-12-11T13:09:23;72.18;;;27.38;;
60908;SDS011;46780;48.128;-1.704;2022-12-11T13:11:52;73.45;;;28.38;;
60908;SDS011;46780;48.128;-1.704;2022-12-11T13:14:21;67.35;;;26.58;;
60908;SDS011;46780;48.128;-1.704;2022-12-11T13:16:51;70.28;;;27.23;;
60908;SDS011;46780;48.128;-1.704;2022-12-11T13:19:31;74.88;;;27.48;;
60908;SDS011;46780;48.128;-1.704;2022-12-11T13:22:01;69.38;;;26.63;;
60908;SDS011;46780;48.128;-1.704;2022-12-11T13:24:29;74.50;;;27.17;;
60908;SDS011;46780;48.128;-1.704;2022-12-11T13:27:06;65.65;;;25.55;;
60908;SDS011;46780;48.128;-1.704;2022-12-11T13:29:35;64.68;;;26.52;;
60908;SDS011;46780;48.128;-1.704;2022-12-11T13:32:10;62.00;;;26.05;;
60908;SDS011;46780;48.128;-1.704;2022-12-11T13:34:49;58.65;;;24.02;;
60908;SDS011;46780;48.128;-1.704;2022-12-11T13:37:22;66.25;;;25.90;;
60908;SDS011;46780;48.128;-1.704;2022-12-11T13:39:52;59.28;;;23.98;;
60908;SDS011;46780;48.128;-1.704;2022-12-11T13:42:21;60.55;;;25.77;;
60908;SDS011;46780;48.128;-1.704;2022-12-11T13:44:52;62.83;;;24.95;;
60908;SDS011;46780;48.128;-1.704;2022-12-11T13:47:19;59.03;;;24.42;;
60908;SDS011;46780;48.128;-1.704;2022-12-11T13:49:46;58.28;;;24.00;;
60908;SDS011;46780;48.128;-1.704;2022-12-11T13:52:16;63.90;;;24.98;;
60908;SDS011;46780;48.128;-1.704;2022-12-11T13:54:48;63.45;;;24.77;;
60908;SDS011;46780;48.128;-1.704;2022-12-11T13:57:16;54.97;;;22.85;;
60908;SDS011;46780;48.128;-1.704;2022-12-11T13:59:46;54.67;;;23.40;;
60908;SDS011;46780;48.128;-1.704;2022-12-11T14:02:16;50.20;;;20.67;;
60908;SDS011;46780;48.128;-1.704;2022-12-11T14:04:46;57.70;;;23.67;;
60908;SDS011;46780;48.128;-1.704;2022-12-11T14:07:19;54.60;;;23.95;;
60908;SDS011;46780;48.128;-1.704;2022-12-11T14:09:51;59.03;;;25.08;;
60908;SDS011;46780;48.128;-1.704;2022-12-11T14:12:21;54.50;;;22.95;;
60908;SDS011;46780;48.128;-1.704;2022-12-11T14:14:48;53.75;;;22.42;;
60908;SDS011;46780;48.128;-1.704;2022-12-11T14:17:22;51.70;;;22.77;;
60908;SDS011;46780;48.128;-1.704;2022-12-11T14:19:49;50.55;;;22.40;;
60908;SDS011;46780;48.128;-1.704;2022-12-11T14:22:17;49.40;;;21.25;;
60908;SDS011;46780;48.128;-1.704;2022-12-11T14:24:51;51.67;;;21.27;;
60908;SDS011;46780;48.128;-1.704;2022-12-11T14:27:19;52.53;;;22.17;;
60908;SDS011;46780;48.128;-1.704;2022-12-11T14:29:46;55.10;;;22.05;;